createdAt,value
2023-10-29T00:02:38.646Z,99.80
2023-10-29T00:05:36.608Z,99.60
2023-10-29T00:08:34.545Z,99.80
2023-10-29T00:11:32.538Z,99.80
2023-10-29T00:14:31.779Z,99.90
2023-10-29T00:17:30.350Z,99.90
2023-10-29T00:20:28.333Z,99.90
2023-10-29T00:23:26.314Z,99.90
2023-10-29T00:26:24.210Z,99.90
2023-10-29T00:29:22.164Z,99.90
2023-10-29T00:32:20.599Z,99.30
2023-10-29T00:35:18.471Z,98.70
2023-10-29T00:38:16.339Z,98.60
2023-10-29T00:41:14.276Z,98.90
2023-10-29T00:44:12.099Z,98.70
2023-10-29T00:47:10.940Z,99.00
2023-10-29T00:50:09.768Z,99.00
2023-10-29T00:53:07.951Z,99.20
2023-10-29T00:56:07.542Z,99.60
2023-10-29T00:59:06.491Z,99.30
2023-10-29T01:02:04.469Z,99.30
2023-10-29T01:05:03.666Z,99.00
2023-10-29T01:08:02.297Z,98.90
2023-10-29T01:11:00.282Z,99.00
2023-10-29T01:13:58.266Z,99.10
2023-10-29T01:16:56.233Z,98.30
2023-10-29T01:19:54.076Z,98.20
2023-10-29T01:22:52.218Z,97.30
2023-10-29T01:25:50.109Z,97.70
2023-10-29T01:28:48.016Z,98.50
2023-10-29T01:31:50.301Z,98.50
2023-10-29T01:34:48.321Z,98.60
2023-10-29T01:37:46.316Z,98.50
2023-10-29T01:40:44.339Z,98.60
2023-10-29T01:43:42.202Z,98.60
2023-10-29T01:46:40.409Z,98.20
2023-10-29T01:49:38.306Z,98.10
2023-10-29T01:52:40.047Z,99.20
2023-10-29T01:55:38.699Z,98.20
2023-10-29T01:58:37.245Z,98.00
2023-10-29T02:01:35.122Z,98.20
2023-10-29T02:04:35.553Z,98.10
2023-10-29T02:07:33.388Z,98.00
2023-10-29T02:10:32.266Z,98.60
2023-10-29T02:13:30.048Z,98.70
2023-10-29T02:16:28.222Z,99.40
2023-10-29T02:19:26.043Z,99.30
2023-10-29T02:22:26.074Z,99.60
2023-10-29T02:25:23.874Z,99.90
2023-10-29T02:28:21.799Z,99.60
2023-10-29T02:31:21.375Z,99.80
2023-10-29T02:34:19.496Z,99.60
2023-10-29T02:37:17.345Z,99.50
2023-10-29T02:40:15.556Z,99.20
2023-10-29T02:43:14.983Z,99.40
2023-10-29T02:46:13.196Z,99.90
2023-10-29T02:49:11.122Z,99.90
2023-10-29T02:52:09.095Z,99.90
2023-10-29T02:55:08.592Z,99.90
2023-10-29T02:58:07.481Z,99.90
2023-10-29T03:01:08.748Z,99.90
2023-10-29T03:04:07.396Z,99.90
2023-10-29T03:07:05.371Z,99.90
2023-10-29T03:10:03.260Z,99.10
2023-10-29T03:13:01.036Z,99.00
2023-10-29T03:15:59.095Z,99.30
2023-10-29T03:18:56.952Z,99.40
2023-10-29T03:21:55.288Z,99.00
2023-10-29T03:24:53.151Z,98.80
2023-10-29T03:27:51.133Z,98.50
2023-10-29T03:30:48.950Z,98.30
2023-10-29T03:33:48.552Z,98.00
2023-10-29T03:36:46.341Z,97.30
2023-10-29T03:39:51.888Z,97.10
2023-10-29T03:42:49.695Z,97.20
2023-10-29T03:45:49.267Z,97.60
2023-10-29T03:48:47.256Z,97.10
2023-10-29T03:51:48.293Z,96.40
2023-10-29T03:54:47.481Z,96.00
2023-10-29T03:57:46.325Z,96.70
2023-10-29T04:00:54.522Z,96.80
2023-10-29T04:03:53.149Z,96.30
2023-10-29T04:06:57.530Z,96.40
2023-10-29T04:09:57.783Z,96.70
2023-10-29T04:12:59.455Z,96.60
2023-10-29T04:15:58.803Z,96.00
2023-10-29T04:18:56.611Z,94.80
2023-10-29T04:22:02.308Z,94.20
2023-10-29T04:25:00.818Z,93.30
2023-10-29T04:28:01.025Z,93.20
2023-10-29T04:31:04.167Z,92.50
2023-10-29T04:34:05.006Z,93.00
2023-10-29T04:37:04.822Z,91.70
2023-10-29T04:40:05.806Z,91.50
2023-10-29T04:43:04.176Z,91.70
2023-10-29T04:46:09.335Z,91.70
2023-10-29T04:49:08.017Z,91.80
2023-10-29T04:52:12.050Z,91.30
2023-10-29T04:55:15.499Z,91.90
2023-10-29T04:58:18.597Z,91.20
2023-10-29T05:01:19.658Z,91.00
2023-10-29T05:04:17.775Z,90.40
2023-10-29T05:07:15.612Z,90.00
2023-10-29T05:10:15.349Z,89.70
2023-10-29T05:13:13.125Z,90.10
2023-10-29T05:16:11.492Z,89.10
2023-10-29T05:19:10.832Z,90.40
2023-10-29T05:22:09.006Z,89.70
2023-10-29T05:25:09.713Z,88.90
2023-10-29T05:28:07.618Z,89.30
2023-10-29T05:31:05.488Z,89.10
2023-10-29T05:34:03.396Z,86.70
2023-10-29T05:37:01.194Z,87.50
2023-10-29T05:39:59.060Z,89.70
2023-10-29T05:42:56.929Z,89.80
2023-10-29T05:45:54.872Z,89.20
2023-10-29T05:48:52.688Z,90.20
2023-10-29T05:51:51.611Z,91.40
2023-10-29T05:54:49.604Z,90.90
2023-10-29T05:57:48.021Z,88.70
2023-10-29T06:00:46.859Z,90.10
2023-10-29T06:03:45.035Z,89.40
2023-10-29T06:06:54.267Z,85.80
2023-10-29T06:09:52.690Z,82.10
2023-10-29T06:12:50.484Z,81.10
2023-10-29T06:15:48.621Z,79.10
2023-10-29T06:18:46.416Z,79.30
2023-10-29T06:21:44.331Z,76.50
2023-10-29T06:24:42.628Z,72.80
2023-10-29T06:27:40.542Z,72.50
2023-10-29T06:30:38.473Z,73.70
2023-10-29T06:33:39.882Z,73.80
2023-10-29T06:36:37.775Z,73.40
2023-10-29T06:39:35.631Z,70.50
2023-10-29T06:42:33.606Z,69.70
2023-10-29T06:45:31.516Z,70.70
2023-10-29T06:48:29.414Z,69.40
2023-10-29T06:51:27.529Z,69.50
2023-10-29T06:54:26.168Z,69.10
2023-10-29T06:57:24.086Z,68.70
2023-10-29T07:00:22.074Z,69.20
2023-10-29T07:03:20.134Z,71.10
2023-10-29T07:06:18.047Z,70.00
2023-10-29T07:09:17.397Z,68.50
2023-10-29T07:12:15.308Z,69.20
2023-10-29T07:15:13.517Z,67.90
2023-10-29T07:18:11.412Z,68.90
2023-10-29T07:21:09.419Z,69.40
2023-10-29T07:24:08.371Z,68.50
2023-10-29T07:27:06.748Z,69.40
2023-10-29T07:30:04.791Z,69.80
2023-10-29T07:33:03.033Z,70.30
2023-10-29T07:36:05.119Z,69.70
2023-10-29T07:39:03.076Z,67.80
2023-10-29T07:42:03.021Z,66.90
2023-10-29T07:45:01.157Z,66.70
2023-10-29T07:48:00.301Z,68.50
2023-10-29T07:50:58.747Z,69.70
2023-10-29T07:53:58.529Z,73.50
2023-10-29T07:56:58.524Z,66.80
2023-10-29T07:59:56.410Z,68.70
2023-10-29T08:02:54.396Z,69.80
2023-10-29T08:05:56.260Z,73.80
2023-10-29T08:08:54.268Z,75.90
2023-10-29T08:11:52.201Z,77.60
2023-10-29T08:14:50.421Z,81.60
2023-10-29T08:17:48.474Z,81.00
2023-10-29T08:20:46.482Z,85.50
2023-10-29T08:23:44.754Z,87.10
2023-10-29T08:26:42.888Z,90.30
2023-10-29T08:29:43.648Z,90.70
2023-10-29T08:32:41.745Z,90.40
2023-10-29T08:35:39.895Z,87.10
2023-10-29T08:38:38.132Z,88.20
2023-10-29T08:41:36.467Z,89.90
2023-10-29T08:44:34.455Z,88.70
2023-10-29T08:47:32.948Z,90.80
2023-10-29T08:50:31.056Z,80.30
2023-10-29T08:53:28.848Z,85.20
2023-10-29T08:56:26.904Z,90.40
2023-10-29T08:59:25.990Z,89.30
2023-10-29T09:02:23.993Z,85.30
2023-10-29T09:05:21.968Z,86.60
2023-10-29T09:08:19.884Z,86.90
2023-10-29T09:11:17.820Z,84.90
2023-10-29T09:14:15.697Z,84.90
2023-10-29T09:17:14.350Z,85.90
2023-10-29T09:20:13.959Z,87.10
2023-10-29T09:23:11.777Z,86.50
2023-10-29T09:26:09.846Z,84.80
2023-10-29T09:29:10.124Z,81.70
2023-10-29T09:32:09.641Z,80.60
2023-10-29T09:35:09.526Z,80.30
2023-10-29T09:38:07.492Z,80.70
2023-10-29T09:41:06.383Z,79.30
2023-10-29T09:44:07.623Z,79.90
2023-10-29T09:47:18.826Z,79.50
2023-10-29T09:50:17.254Z,79.70
2023-10-29T09:53:17.058Z,80.30
2023-10-29T09:56:15.055Z,79.90
2023-10-29T09:59:12.849Z,77.90
2023-10-29T10:02:12.025Z,79.30
2023-10-29T10:05:11.630Z,78.70
2023-10-29T10:08:10.966Z,78.00
2023-10-29T10:11:23.018Z,77.90
2023-10-29T10:14:28.430Z,76.90
2023-10-29T10:17:26.384Z,76.40
2023-10-29T10:20:24.936Z,76.50
2023-10-29T10:23:23.526Z,75.90
2023-10-29T10:26:39.394Z,75.30
2023-10-29T10:29:38.733Z,76.30
2023-10-29T10:32:36.631Z,77.80
2023-10-29T10:35:56.661Z,78.20
2023-10-29T10:38:54.961Z,80.10
2023-10-29T10:41:52.734Z,79.70
2023-10-29T10:44:50.776Z,79.60
2023-10-29T10:47:48.695Z,80.40
2023-10-29T10:50:48.054Z,82.50
2023-10-29T10:53:46.896Z,83.50
2023-10-29T10:56:45.722Z,84.30
2023-10-29T10:59:45.602Z,85.70
2023-10-29T11:02:44.639Z,86.50
2023-10-29T11:05:43.412Z,86.20
2023-10-29T11:08:42.823Z,86.40
2023-10-29T11:11:51.877Z,85.70
2023-10-29T11:15:21.035Z,86.50
2023-10-29T11:18:30.390Z,86.90
2023-10-29T11:21:36.511Z,86.60
2023-10-29T11:24:34.292Z,87.90
2023-10-29T11:27:42.324Z,86.30
2023-10-29T11:30:40.207Z,87.90
2023-10-29T11:33:38.294Z,87.50
2023-10-29T11:36:39.091Z,87.90
2023-10-29T11:39:37.818Z,88.20
2023-10-29T11:42:35.635Z,89.50
2023-10-29T11:45:37.470Z,90.30
2023-10-29T11:48:35.693Z,90.80
2023-10-29T11:51:33.747Z,90.60
2023-10-29T11:54:33.960Z,90.30
2023-10-29T11:57:32.906Z,89.70
2023-10-29T12:00:46.063Z,89.60
2023-10-29T12:03:52.476Z,86.60
2023-10-29T12:06:50.725Z,84.40
2023-10-29T12:09:49.023Z,83.60
2023-10-29T12:12:55.239Z,83.90
2023-10-29T12:16:03.100Z,83.70
2023-10-29T12:19:01.008Z,85.30
2023-10-29T12:21:59.016Z,88.30
2023-10-29T12:25:01.636Z,88.00
2023-10-29T12:27:59.684Z,88.60
2023-10-29T12:30:59.550Z,87.20
2023-10-29T12:34:01.858Z,88.10
2023-10-29T12:36:59.651Z,88.40
2023-10-29T12:40:01.749Z,86.70
2023-10-29T12:43:00.274Z,87.10
2023-10-29T12:46:02.272Z,86.70
2023-10-29T12:49:04.742Z,86.10
2023-10-29T12:52:04.269Z,86.90
2023-10-29T12:55:02.190Z,86.30
2023-10-29T12:58:05.601Z,84.70
2023-10-29T13:01:05.271Z,83.30
2023-10-29T13:04:03.248Z,83.50
2023-10-29T13:07:16.983Z,84.10
2023-10-29T13:10:15.184Z,83.90
2023-10-29T13:13:13.136Z,83.50
2023-10-29T13:16:11.124Z,87.80
2023-10-29T13:19:08.957Z,84.60
2023-10-29T13:22:07.115Z,84.50
2023-10-29T13:25:07.638Z,84.10
2023-10-29T13:28:06.130Z,83.50
2023-10-29T13:31:04.554Z,82.70
2023-10-29T13:34:02.486Z,82.10
2023-10-29T13:37:01.154Z,81.30
2023-10-29T13:40:00.228Z,80.70
2023-10-29T13:42:57.998Z,80.90
2023-10-29T13:46:03.706Z,80.80
2023-10-29T13:49:01.943Z,81.20
2023-10-29T13:52:00.041Z,80.70
2023-10-29T13:54:58.239Z,81.00
2023-10-29T13:57:57.742Z,80.90
2023-10-29T14:00:55.840Z,83.50
2023-10-29T14:03:54.302Z,84.00
2023-10-29T14:06:52.103Z,82.90
2023-10-29T14:09:50.015Z,83.30
2023-10-29T14:12:48.184Z,83.60
2023-10-29T14:15:46.186Z,83.60
2023-10-29T14:18:44.818Z,84.70
2023-10-29T14:21:43.747Z,83.20
2023-10-29T14:24:41.716Z,84.30
2023-10-29T14:27:39.940Z,84.00
2023-10-29T14:30:40.193Z,82.40
2023-10-29T14:33:39.390Z,82.40
2023-10-29T14:36:37.999Z,81.90
2023-10-29T14:39:36.240Z,82.40
2023-10-29T14:42:34.260Z,83.10
2023-10-29T14:45:32.559Z,83.10
2023-10-29T14:48:30.705Z,82.40
2023-10-29T14:51:28.751Z,82.00
2023-10-29T14:54:26.715Z,82.50
2023-10-29T14:57:29.998Z,83.70
2023-10-29T15:00:28.268Z,84.20
2023-10-29T15:03:26.707Z,82.50
2023-10-29T15:06:24.683Z,82.20
2023-10-29T15:09:22.858Z,81.70
2023-10-29T15:12:21.864Z,82.10
2023-10-29T15:15:34.637Z,81.60
2023-10-29T15:18:33.561Z,83.50
2023-10-29T15:21:31.780Z,87.40
2023-10-29T15:24:32.158Z,87.30
2023-10-29T15:27:30.028Z,86.20
2023-10-29T15:30:28.256Z,87.40
2023-10-29T15:33:26.260Z,86.90
2023-10-29T15:36:24.188Z,88.70
2023-10-29T15:39:22.425Z,89.60
2023-10-29T15:42:23.235Z,89.10
2023-10-29T15:45:21.239Z,90.70
2023-10-29T15:48:22.115Z,90.60
2023-10-29T15:51:26.045Z,90.30
2023-10-29T15:54:23.984Z,91.00
2023-10-29T15:57:24.813Z,91.30
2023-10-29T16:00:22.914Z,91.80
2023-10-29T16:03:20.960Z,90.20
2023-10-29T16:06:18.987Z,91.90
2023-10-29T16:09:17.388Z,91.90
2023-10-29T16:12:15.362Z,92.30
2023-10-29T16:15:13.542Z,92.60
2023-10-29T16:18:11.476Z,92.70
2023-10-29T16:21:10.644Z,93.50
2023-10-29T16:24:08.803Z,93.60
2023-10-29T16:27:06.805Z,93.50
2023-10-29T16:30:05.081Z,93.80
2023-10-29T16:33:05.269Z,92.70
2023-10-29T16:36:04.846Z,94.00
2023-10-29T16:39:02.920Z,94.40
2023-10-29T16:42:01.281Z,94.90
2023-10-29T16:44:59.297Z,95.00
2023-10-29T16:47:58.050Z,94.00
2023-10-29T16:51:03.240Z,95.00
2023-10-29T16:54:01.854Z,95.30
2023-10-29T16:56:59.846Z,95.30
2023-10-29T16:59:57.710Z,95.30
2023-10-29T17:02:56.281Z,95.30
2023-10-29T17:05:54.360Z,94.80
2023-10-29T17:08:52.382Z,94.80
2023-10-29T17:11:50.787Z,94.70
2023-10-29T17:14:48.769Z,94.90
2023-10-29T17:17:46.668Z,94.90
2023-10-29T17:20:45.322Z,94.70
2023-10-29T17:23:45.464Z,94.90
2023-10-29T17:26:43.462Z,95.00
2023-10-29T17:29:41.297Z,95.10
2023-10-29T17:32:39.205Z,94.70
2023-10-29T17:35:37.510Z,94.30
2023-10-29T17:38:35.718Z,94.00
2023-10-29T17:41:33.563Z,94.00
2023-10-29T17:44:32.288Z,94.20
2023-10-29T17:47:30.231Z,93.80
2023-10-29T17:50:28.207Z,93.20
2023-10-29T17:53:26.271Z,92.70
2023-10-29T17:56:24.670Z,92.50
2023-10-29T17:59:23.172Z,92.80
2023-10-29T18:02:21.606Z,92.70
2023-10-29T18:05:19.525Z,92.50
2023-10-29T18:08:17.439Z,92.00
2023-10-29T18:11:16.105Z,92.00
2023-10-29T18:14:13.970Z,92.20
2023-10-29T18:17:11.862Z,92.10
2023-10-29T18:20:10.454Z,92.20
2023-10-29T18:23:08.539Z,92.60
2023-10-29T18:26:06.670Z,92.60
2023-10-29T18:29:05.124Z,92.70
2023-10-29T18:32:03.050Z,92.40
2023-10-29T18:35:02.352Z,92.60
2023-10-29T18:38:02.559Z,92.60
2023-10-29T18:41:00.367Z,92.30
2023-10-29T18:44:00.799Z,92.00
2023-10-29T18:47:00.039Z,92.00
2023-10-29T18:49:59.236Z,91.60
2023-10-29T18:52:57.334Z,91.30
2023-10-29T18:55:55.557Z,91.50
2023-10-29T18:58:57.418Z,91.60
2023-10-29T19:01:55.568Z,91.70
2023-10-29T19:04:53.723Z,91.70
2023-10-29T19:07:51.615Z,91.80
2023-10-29T19:10:49.498Z,91.50
2023-10-29T19:13:48.413Z,91.70
2023-10-29T19:16:46.511Z,91.90
2023-10-29T19:19:44.424Z,91.80
2023-10-29T19:22:42.231Z,91.80
2023-10-29T19:25:40.121Z,91.90
2023-10-29T19:28:38.121Z,92.50
2023-10-29T19:31:36.908Z,92.10
2023-10-29T19:34:34.781Z,91.90
2023-10-29T19:37:32.968Z,91.60
2023-10-29T19:40:30.984Z,91.30
2023-10-29T19:43:29.444Z,91.30
2023-10-29T19:46:28.148Z,91.40
2023-10-29T19:49:26.159Z,91.50
2023-10-29T19:52:24.240Z,91.60
2023-10-29T19:55:22.329Z,91.90
2023-10-29T19:58:20.247Z,92.20
2023-10-29T20:01:21.680Z,91.90
2023-10-29T20:04:19.854Z,92.10
2023-10-29T20:07:17.930Z,92.20
2023-10-29T20:10:16.330Z,92.40
2023-10-29T20:13:14.271Z,92.50
2023-10-29T20:16:12.383Z,92.60
2023-10-29T20:19:10.414Z,91.90
2023-10-29T20:22:08.243Z,92.10
2023-10-29T20:25:06.641Z,92.30
2023-10-29T20:28:04.650Z,92.20
2023-10-29T20:31:02.574Z,91.60
2023-10-29T20:34:00.466Z,92.30
2023-10-29T20:36:58.352Z,92.60
2023-10-29T20:39:56.111Z,92.90
2023-10-29T20:42:54.096Z,95.10
2023-10-29T20:45:53.301Z,95.80
2023-10-29T20:48:52.062Z,96.40
2023-10-29T20:51:49.864Z,96.60
2023-10-29T20:54:47.755Z,96.80
2023-10-29T20:57:45.599Z,96.90
2023-10-29T21:00:47.924Z,96.90
2023-10-29T21:03:45.900Z,96.90
2023-10-29T21:06:44.056Z,97.20
2023-10-29T21:09:41.964Z,97.00
2023-10-29T21:12:39.928Z,97.30
2023-10-29T21:15:41.977Z,97.60
2023-10-29T21:18:39.917Z,97.70
2023-10-29T21:21:37.885Z,97.80
2023-10-29T21:24:35.851Z,97.80
2023-10-29T21:27:34.334Z,98.10
2023-10-29T21:30:32.622Z,98.10
2023-10-29T21:33:30.689Z,98.40
2023-10-29T21:36:28.754Z,98.10
2023-10-29T21:39:26.722Z,97.90
2023-10-29T21:42:24.811Z,97.80
2023-10-29T21:45:22.678Z,98.60
2023-10-29T21:48:20.799Z,99.20
2023-10-29T21:51:18.729Z,99.50
2023-10-29T21:54:16.706Z,99.20
2023-10-29T21:57:14.575Z,99.20
2023-10-29T22:00:13.217Z,99.30
2023-10-29T22:03:11.201Z,99.60
2023-10-29T22:06:09.380Z,99.40
2023-10-29T22:09:07.227Z,99.60
2023-10-29T22:12:05.508Z,99.90
2023-10-29T22:15:05.113Z,99.80
2023-10-29T22:18:03.114Z,99.60
2023-10-29T22:21:06.853Z,99.60
2023-10-29T22:24:05.660Z,99.30
2023-10-29T22:27:03.575Z,99.30
2023-10-29T22:30:01.663Z,99.30
2023-10-29T22:32:59.613Z,98.90
2023-10-29T22:36:01.599Z,99.20
2023-10-29T22:39:00.194Z,99.10
2023-10-29T22:41:58.213Z,98.90
2023-10-29T22:44:56.041Z,98.60
2023-10-29T22:47:56.182Z,98.40
2023-10-29T22:50:54.087Z,98.20
2023-10-29T22:53:52.006Z,98.60
2023-10-29T22:56:49.809Z,98.50
2023-10-29T22:59:47.948Z,98.20
2023-10-29T23:02:46.068Z,97.80
2023-10-29T23:05:44.161Z,97.40
2023-10-29T23:08:42.347Z,97.50
2023-10-29T23:11:40.212Z,97.50
2023-10-29T23:14:38.100Z,97.70
2023-10-29T23:17:36.170Z,97.90
2023-10-29T23:20:34.086Z,97.90
2023-10-29T23:23:32.050Z,97.90
2023-10-29T23:26:31.291Z,98.00
2023-10-29T23:29:29.204Z,97.90
2023-10-29T23:32:27.069Z,97.90
2023-10-29T23:35:25.110Z,97.80
2023-10-29T23:38:22.936Z,98.10
2023-10-29T23:41:20.988Z,98.30
2023-10-29T23:44:19.140Z,98.40
2023-10-29T23:47:17.058Z,98.30
2023-10-29T23:50:15.036Z,98.20
2023-10-29T23:53:12.942Z,98.20
2023-10-29T23:56:10.776Z,97.90
2023-10-29T23:59:08.808Z,98.10
